Time;durP1;ratioP1;P1;durP2;ratioP2;P2;SDS_P1;SDS_P2;PMS_P1;PMS_P2;Temp;Humidity;BMP_temperature;BMP_pressure;BME280_temperature;BME280_humidity;BME280_pressure;Samples;Min_cycle;Max_cycle;Signal;HPM_P1;HPM_P2
2023/01/05 07:58:13;;;;;;;11.90;4.97;;;12.80;60.60;;;;;;6319123;22;20047;-74
2023/01/05 08:01:17;;;;;;;8.85;4.38;;;12.80;60.30;;;;;;6296615;28;20128;-73
2023/01/05 08:04:17;;;;;;;9.55;4.93;;;12.90;60.30;;;;;;6300865;28;20127;-73
2023/01/05 08:07:18;;;;;;;11.45;4.80;;;12.90;60.10;;;;;;6300157;28;20044;-73
2023/01/05 08:10:37;;;;;;;29.05;5.25;;;12.90;60.10;;;;;;6301208;28;20040;-72
2023/01/05 08:16:57;;;;;;;10.70;4.28;;;12.90;60.20;;;;;;6303614;28;20445;-72
2023/01/05 08:19:58;;;;;;;10.43;4.28;;;12.90;60.10;;;;;;6303505;28;20052;-72
2023/01/05 08:22:58;;;;;;;10.43;5.28;;;12.90;60.00;;;;;;6319147;28;20121;-73
2023/01/05 08:26:26;;;;;;;26.63;4.90;;;12.90;60.10;;;;;;6321116;28;20047;-73
2023/01/05 08:29:28;;;;;;;9.32;4.72;;;12.90;60.10;;;;;;6318438;28;20040;-73
2023/01/05 08:32:28;;;;;;;12.98;5.03;;;12.90;60.10;;;;;;6302987;28;20048;-72
2023/01/05 08:35:29;;;;;;;10.55;4.57;;;12.80;60.10;;;;;;6303324;28;20074;-73
2023/01/05 08:38:30;;;;;;;36.90;10.70;;;12.80;60.20;;;;;;6287445;28;20062;-73
2023/01/05 08:41:36;;;;;;;14.52;5.40;;;12.80;60.30;;;;;;6293367;28;20036;-73
2023/01/05 08:44:37;;;;;;;11.63;5.93;;;12.80;60.50;;;;;;6289579;28;20029;-73
2023/01/05 08:47:38;;;;;;;10.10;5.35;;;12.90;60.50;;;;;;6275183;28;20037;-73
2023/01/05 08:50:39;;;;;;;11.50;5.30;;;13.00;60.50;;;;;;6275995;28;20123;-73
2023/01/05 08:53:39;;;;;;;16.17;5.32;;;13.00;60.20;;;;;;6276754;28;20115;-74
2023/01/05 08:56:42;;;;;;;11.70;5.25;;;13.10;59.90;;;;;;6293193;28;20456;-74
2023/01/05 08:59:43;;;;;;;10.68;5.38;;;13.10;59.70;;;;;;6268905;28;20045;-74
2023/01/05 09:02:44;;;;;;;15.27;5.25;;;13.10;59.50;;;;;;6268091;28;20060;-73
2023/01/05 09:05:45;;;;;;;12.13;4.97;;;13.10;59.40;;;;;;6268962;28;20488;-72
2023/01/05 09:08:46;;;;;;;15.98;4.50;;;13.20;59.30;;;;;;6267629;28;20056;-73
2023/01/05 09:11:47;;;;;;;9.48;5.22;;;13.30;58.90;;;;;;6292447;28;20509;-72
2023/01/05 09:14:48;;;;;;;19.95;5.32;;;13.30;58.50;;;;;;6293791;28;20033;-73
2023/01/05 09:17:49;;;;;;;15.60;5.82;;;13.40;58.60;;;;;;6293412;28;20033;-73
2023/01/05 09:20:56;;;;;;;13.25;5.57;;;13.40;58.40;;;;;;6292248;28;20068;-74
2023/01/05 09:23:57;;;;;;;9.27;4.90;;;13.50;58.40;;;;;;6268696;28;20041;-73
2023/01/05 09:26:58;;;;;;;12.90;5.43;;;13.60;58.20;;;;;;6270349;28;20492;-73
2023/01/05 09:29:58;;;;;;;10.07;4.85;;;13.60;58.20;;;;;;6253809;28;20037;-73
2023/01/05 09:32:59;;;;;;;11.50;5.68;;;13.70;57.90;;;;;;6266077;28;20037;-73
2023/01/05 09:36:00;;;;;;;10.32;5.15;;;13.70;57.70;;;;;;6267634;28;20098;-73
2023/01/05 09:39:03;;;;;;;13.15;5.88;;;13.70;57.60;;;;;;6267828;28;20477;-74
2023/01/05 09:42:09;;;;;;;14.60;4.78;;;13.80;57.60;;;;;;6266266;28;20055;-73
2023/01/05 09:45:14;;;;;;;11.80;4.47;;;13.90;57.50;;;;;;6267086;28;20041;-72
2023/01/05 09:48:17;;;;;;;15.48;5.43;;;13.90;57.40;;;;;;6266288;28;20120;-73
2023/01/05 09:51:18;;;;;;;9.52;4.65;;;14.00;57.20;;;;;;6251970;28;20025;-72
2023/01/05 09:54:21;;;;;;;204.80;162.88;;;14.00;57.10;;;;;;6284685;28;20112;-74
2023/01/05 09:57:26;;;;;;;49.67;38.40;;;14.10;57.20;;;;;;6266475;28;20048;-73
2023/01/05 10:00:28;;;;;;;10.15;4.63;;;14.10;56.80;;;;;;6268225;28;20413;-74
2023/01/05 10:03:31;;;;;;;9.73;4.68;;;14.20;56.50;;;;;;6285418;28;20071;-73
2023/01/05 10:06:37;;;;;;;11.00;5.40;;;14.20;56.50;;;;;;6294393;28;20063;-73
2023/01/05 10:09:39;;;;;;;9.00;4.55;;;14.30;56.60;;;;;;6266249;28;20442;-73
2023/01/05 10:13:05;;;;;;;11.82;4.93;;;14.60;56.50;;;;;;6293530;28;20079;-73
2023/01/05 10:16:09;;;;;;;14.95;4.35;;;14.80;55.80;;;;;;6289490;28;20123;-73
2023/01/05 10:19:15;;;;;;;12.98;5.05;;;14.90;55.40;;;;;;6289720;28;20044;-72
2023/01/05 10:22:41;;;;;;;17.40;5.65;;;14.80;55.10;;;;;;6291871;28;20369;-73
2023/01/05 10:25:52;;;;;;;12.50;5.47;;;14.80;55.00;;;;;;6288889;28;20106;-73
2023/01/05 10:29:04;;;;;;;19.40;5.32;;;14.70;55.00;;;;;;6263416;28;20041;-73
2023/01/05 10:32:21;;;;;;;12.07;5.97;;;14.70;55.00;;;;;;6268733;28;20115;-73
2023/01/05 10:35:27;;;;;;;13.20;5.47;;;14.80;55.00;;;;;;6290196;28;20994;-73
2023/01/05 10:38:59;;;;;;;9.98;5.70;;;14.90;54.80;;;;;;6280107;28;20073;-73
2023/01/05 10:42:15;;;;;;;11.02;5.28;;;15.00;54.80;;;;;;6156476;28;20074;-72
2023/01/05 10:45:18;;;;;;;11.95;5.55;;;15.10;54.50;;;;;;6175666;28;20034;-72
2023/01/05 10:48:26;;;;;;;10.48;4.45;;;15.10;54.40;;;;;;6178825;28;20074;-72
2023/01/05 10:51:32;;;;;;;13.35;5.03;;;15.10;54.40;;;;;;6194337;28;20051;-72
2023/01/05 10:54:42;;;;;;;11.18;4.65;;;15.20;54.30;;;;;;6194931;28;20077;-72
2023/01/05 10:57:44;;;;;;;12.80;4.30;;;15.30;54.20;;;;;;6194736;28;20050;-74
2023/01/05 11:00:45;;;;;;;16.60;4.95;;;15.30;54.10;;;;;;6177543;28;20104;-73
2023/01/05 11:03:48;;;;;;;11.40;3.78;;;15.40;53.90;;;;;;6177314;28;20496;-72
2023/01/05 11:06:50;;;;;;;8.07;3.80;;;15.50;53.60;;;;;;6180815;28;20133;-73
2023/01/05 11:09:51;;;;;;;11.35;3.92;;;15.60;53.20;;;;;;6191858;28;20041;-72
2023/01/05 11:13:01;;;;;;;20.98;5.00;;;15.70;53.10;;;;;;6192966;28;20574;-73
2023/01/05 11:16:13;;;;;;;11.20;4.53;;;15.80;52.60;;;;;;6192174;28;20054;-74
2023/01/05 11:19:21;;;;;;;9.30;4.38;;;15.80;52.20;;;;;;6241890;28;20097;-74
2023/01/05 11:22:38;;;;;;;12.43;5.17;;;15.90;52.30;;;;;;6281494;28;20052;-73
2023/01/05 11:25:39;;;;;;;9.70;4.80;;;16.00;51.90;;;;;;6294916;28;20119;-72
2023/01/05 11:29:08;;;;;;;13.18;5.10;;;16.10;51.60;;;;;;6300225;28;20469;-73
2023/01/05 11:32:12;;;;;;;11.55;5.32;;;16.10;51.60;;;;;;6297690;28;20036;-74
2023/01/05 11:35:27;;;;;;;12.43;5.18;;;16.20;51.50;;;;;;6296528;28;20037;-72
2023/01/05 11:38:30;;;;;;;10.63;5.00;;;16.20;51.70;;;;;;6293580;28;20100;-71
2023/01/05 11:41:31;;;;;;;14.95;5.28;;;16.20;51.50;;;;;;6299098;28;20052;-73
2023/01/05 11:44:33;;;;;;;15.32;6.15;;;16.20;51.40;;;;;;6291745;28;20056;-73
2023/01/05 11:47:42;;;;;;;19.15;5.18;;;16.30;51.30;;;;;;6291201;28;20657;-73
2023/01/05 11:50:50;;;;;;;8.73;5.00;;;16.20;51.30;;;;;;6291074;28;20067;-73
2023/01/05 11:53:51;;;;;;;8.80;4.45;;;16.20;51.20;;;;;;6266060;28;20036;-73
2023/01/05 11:57:13;;;;;;;13.25;5.53;;;16.40;51.10;;;;;;6267025;28;20478;-73
2023/01/05 12:00:41;;;;;;;15.05;4.88;;;16.40;51.00;;;;;;6316645;28;20054;-74
2023/01/05 12:04:02;;;;;;;9.50;5.38;;;16.50;50.70;;;;;;6300696;28;20115;-72
2023/01/05 12:07:09;;;;;;;16.40;5.55;;;16.60;50.80;;;;;;6318135;28;20044;-73
2023/01/05 12:10:19;;;;;;;10.25;4.35;;;16.70;50.60;;;;;;6318291;28;20047;-73
2023/01/05 12:13:49;;;;;;;10.63;4.80;;;16.60;50.60;;;;;;6301580;28;20035;-72
2023/01/05 12:16:57;;;;;;;14.88;4.90;;;16.60;50.60;;;;;;6299852;28;20036;-73
2023/01/05 12:20:16;;;;;;;22.55;5.05;;;16.70;50.70;;;;;;6300188;28;20048;-73
2023/01/05 12:23:20;;;;;;;16.25;5.22;;;16.60;50.60;;;;;;6282842;28;20040;-74
2023/01/05 12:26:41;;;;;;;13.57;5.28;;;16.60;50.60;;;;;;6299818;28;20032;-73
2023/01/05 12:30:09;;;;;;;17.88;4.28;;;16.60;50.60;;;;;;6298875;28;20047;-74
2023/01/05 12:33:15;;;;;;;10.25;4.43;;;16.70;50.50;;;;;;6281635;28;20047;-73
2023/01/05 12:36:50;;;;;;;12.40;4.47;;;16.70;50.40;;;;;;6316241;28;20055;-73
2023/01/05 12:40:11;;;;;;;10.93;4.32;;;16.80;50.60;;;;;;6297325;28;20036;-72
2023/01/05 12:43:25;;;;;;;7.00;3.80;;;16.90;50.40;;;;;;6315434;28;20394;-73
2023/01/05 12:47:04;;;;;;;11.93;4.65;;;17.10;50.20;;;;;;6295827;28;20036;-73
2023/01/05 12:50:31;;;;;;;12.50;5.03;;;17.20;49.90;;;;;;6268571;28;20036;-73
2023/01/05 12:53:35;;;;;;;12.93;5.07;;;17.30;49.80;;;;;;6276984;28;20036;-74
2023/01/05 12:56:40;;;;;;;13.07;5.43;;;17.30;49.70;;;;;;6272034;28;20048;-73
2023/01/05 12:59:53;;;;;;;8.52;3.53;;;17.30;49.70;;;;;;6303340;28;20058;-73
2023/01/05 13:02:55;;;;;;;14.38;4.47;;;17.40;49.60;;;;;;6296460;28;20483;-71
2023/01/05 13:06:14;;;;;;;10.68;3.95;;;17.50;49.40;;;;;;6295234;28;20040;-73
2023/01/05 13:09:19;;;;;;;;;;;17.50;49.10;;;;;;6277614;28;20032;-72
2023/01/05 13:12:19;;;;;;;11.95;3.63;;;17.60;48.80;;;;;;6298743;28;19912;-73
2023/01/05 13:15:27;;;;;;;13.07;5.22;;;17.60;48.70;;;;;;6281860;28;20032;-73
2023/01/05 13:18:29;;;;;;;9.27;4.38;;;17.70;48.70;;;;;;6299004;28;20097;-73
2023/01/05 13:21:32;;;;;;;12.02;4.57;;;17.80;48.70;;;;;;6297538;28;20407;-73
2023/01/05 13:24:48;;;;;;;8.65;4.03;;;17.90;48.50;;;;;;6316099;28;20120;-73
2023/01/05 13:27:49;;;;;;;6.45;3.17;;;18.00;48.30;;;;;;6315094;28;20650;-73
2023/01/05 13:30:59;;;;;;;9.27;3.50;;;18.00;48.30;;;;;;6291047;28;23158;-73
2023/01/05 13:34:15;;;;;;;9.15;3.58;;;18.00;48.60;;;;;;6292628;28;20036;-72
2023/01/05 13:37:27;;;;;;;6.32;3.03;;;18.00;48.60;;;;;;6293040;28;20043;-74
2023/01/05 13:40:55;;;;;;;10.30;4.90;;;18.00;48.70;;;;;;6295083;28;20072;-74
2023/01/05 13:44:11;;;;;;;14.80;4.03;;;18.00;48.60;;;;;;6292306;28;20102;-72
2023/01/05 13:47:36;;;;;;;9.88;4.07;;;18.00;48.50;;;;;;6311008;28;20036;-73
2023/01/05 13:51:05;;;;;;;8.82;3.15;;;17.90;48.30;;;;;;6309738;28;20047;-74
2023/01/05 13:54:15;;;;;;;12.48;3.30;;;17.90;48.30;;;;;;6293797;28;20040;-74
2023/01/05 13:57:25;;;;;;;7.40;2.85;;;17.90;48.20;;;;;;6295706;28;20126;-73
2023/01/05 14:00:32;;;;;;;8.88;2.75;;;17.90;48.20;;;;;;6294686;28;20040;-74
2023/01/05 14:03:39;;;;;;;7.53;3.20;;;17.90;48.10;;;;;;6297149;28;20055;-73
2023/01/05 14:06:44;;;;;;;14.63;3.85;;;17.90;48.20;;;;;;6311884;28;20472;-74
2023/01/05 14:09:55;;;;;;;11.68;3.70;;;17.90;48.20;;;;;;6294930;28;20048;-72
2023/01/05 14:12:57;;;;;;;6.55;3.28;;;17.90;48.20;;;;;;6310762;28;20098;-73
2023/01/05 14:15:58;;;;;;;7.68;3.03;;;17.90;48.60;;;;;;6310945;28;20123;-72
2023/01/05 14:19:20;;;;;;;6.80;2.92;;;17.80;48.00;;;;;;6314173;28;20408;-73
2023/01/05 14:22:34;;;;;;;6.20;3.58;;;17.80;48.20;;;;;;6315571;28;20032;-72
2023/01/05 14:25:38;;;;;;;12.05;3.45;;;17.70;48.20;;;;;;6296473;28;20074;-73
2023/01/05 14:28:43;;;;;;;11.90;3.22;;;17.70;48.20;;;;;;6282241;28;20032;-73
2023/01/05 14:31:46;;;;;;;10.18;3.47;;;17.70;48.20;;;;;;6298798;28;20040;-71
2023/01/05 14:34:56;;;;;;;11.23;3.78;;;17.70;48.40;;;;;;6296914;28;20085;-71
2023/01/05 14:38:01;;;;;;;8.93;3.78;;;17.70;48.30;;;;;;6318427;28;20453;-73
2023/01/05 14:41:14;;;;;;;6.72;3.63;;;17.70;48.30;;;;;;6317753;28;20072;-73
2023/01/05 14:44:20;;;;;;;11.65;3.85;;;17.70;48.40;;;;;;6301437;28;20044;-72
2023/01/05 14:47:43;;;;;;;10.68;3.70;;;17.70;48.40;;;;;;6315085;28;20350;-72
2023/01/05 14:50:44;;;;;;;7.03;3.47;;;17.70;48.40;;;;;;6317777;28;20506;-74
2023/01/05 14:53:47;;;;;;;15.13;4.07;;;17.60;48.50;;;;;;6301057;28;20060;-75
2023/01/05 14:57:33;;;;;;;9.35;3.35;;;17.60;48.50;;;;;;6300423;28;20052;-73
2023/01/05 15:00:35;;;;;;;8.68;2.83;;;17.60;48.60;;;;;;6297352;28;20039;-74
2023/01/05 15:03:46;;;;;;;5.57;2.75;;;17.50;48.70;;;;;;6316190;28;20499;-73
2023/01/05 15:06:52;;;;;;;5.10;2.72;;;17.40;49.40;;;;;;6296854;28;20491;-73
2023/01/05 15:10:13;;;;;;;7.05;3.20;;;17.40;49.20;;;;;;6299194;28;20048;-74
2023/01/05 15:13:34;;;;;;;8.77;3.25;;;17.30;49.40;;;;;;6299503;28;20139;-73
2023/01/05 15:16:48;;;;;;;;;;;17.20;49.60;;;;;;6313439;28;20032;-72
2023/01/05 15:19:57;;;;;;;5.75;2.75;;;17.20;49.70;;;;;;6299796;28;20015;-73
2023/01/05 15:23:28;;;;;;;4.50;2.40;;;17.20;49.80;;;;;;6304265;28;20119;-74
2023/01/05 15:26:46;;;;;;;4.68;1.58;;;17.20;50.20;;;;;;6317508;28;20051;-72
2023/01/05 15:30:30;;;;;;;9.68;2.70;;;17.10;50.80;;;;;;6300255;28;20040;-73
2023/01/05 15:33:36;;;;;;;5.93;2.40;;;17.10;51.40;;;;;;6295887;28;20036;-74
2023/01/05 15:37:11;;;;;;;4.07;2.17;;;17.00;51.50;;;;;;6288868;28;20036;-73
2023/01/05 15:40:21;;;;;;;5.55;2.95;;;17.00;51.70;;;;;;6222026;28;20045;-73
2023/01/05 15:43:22;;;;;;;9.55;3.35;;;16.90;51.80;;;;;;6224888;28;20170;-73
2023/01/05 15:46:31;;;;;;;1.50;1.20;;;16.90;51.80;;;;;;6206301;28;20098;-73
2023/01/05 15:49:33;;;;;;;1.17;0.80;;;16.80;52.20;;;;;;6224384;28;20123;-74
2023/01/05 15:52:38;;;;;;;1.90;1.13;;;16.80;52.80;;;;;;6222578;28;20064;-73
2023/01/05 15:55:43;;;;;;;1.90;0.70;;;16.70;53.40;;;;;;6221406;28;20037;-73
2023/01/05 15:58:45;;;;;;;1.48;1.10;;;16.60;54.20;;;;;;6239437;28;20553;-73
2023/01/05 16:01:45;;;;;;;2.20;1.00;;;16.60;54.60;;;;;;6230885;28;20486;-74
2023/01/05 16:04:46;;;;;;;1.77;1.17;;;16.60;54.90;;;;;;6239259;28;20065;-73
2023/01/05 16:07:53;;;;;;;1.75;1.00;;;16.60;55.10;;;;;;6239010;28;20162;-74
2023/01/05 16:10:59;;;;;;;1.35;0.95;;;16.60;55.30;;;;;;6239560;28;20387;-73
2023/01/05 16:14:14;;;;;;;1.50;1.10;;;16.50;55.40;;;;;;6224031;28;20434;-73
2023/01/05 16:17:21;;;;;;;1.48;0.70;;;16.50;55.60;;;;;;6276104;28;20180;-73
2023/01/05 16:20:24;;;;;;;1.80;0.82;;;16.40;55.90;;;;;;6282847;28;20143;-72
2023/01/05 16:23:35;;;;;;;2.13;1.20;;;16.40;56.10;;;;;;6281206;28;20357;-73
2023/01/05 16:26:36;;;;;;;1.75;1.10;;;16.40;56.20;;;;;;6315449;28;20032;-74
2023/01/05 16:29:45;;;;;;;2.88;1.25;;;16.30;56.40;;;;;;6299695;28;20420;-74
2023/01/05 16:32:58;;;;;;;10.05;1.30;;;16.40;56.70;;;;;;6315198;28;20063;-73
2023/01/05 16:36:21;;;;;;;2.80;1.10;;;16.30;56.70;;;;;;6297555;28;20043;-73
2023/01/05 16:39:23;;;;;;;9.55;1.30;;;16.30;56.80;;;;;;6297199;28;20127;-74
2023/01/05 16:42:39;;;;;;;2.20;1.15;;;16.30;56.70;;;;;;6298142;28;20047;-74
2023/01/05 16:45:40;;;;;;;1.17;0.90;;;16.30;56.70;;;;;;6298338;28;20044;-73
2023/01/05 16:48:41;;;;;;;1.83;1.20;;;16.30;56.70;;;;;;6281485;28;20043;-73
2023/01/05 16:51:42;;;;;;;11.55;3.08;;;16.30;56.70;;;;;;6314101;28;20040;-73
2023/01/05 16:54:43;;;;;;;6.50;3.10;;;16.30;56.70;;;;;;6296889;28;20041;-73
2023/01/05 16:57:44;;;;;;;9.52;3.70;;;16.40;56.60;;;;;;6290015;28;20048;-74
2023/01/05 17:00:45;;;;;;;14.30;3.22;;;16.20;56.30;;;;;;6288409;28;20563;-73
2023/01/05 17:03:46;;;;;;;8.20;2.95;;;16.10;56.10;;;;;;6287474;28;20067;-73
2023/01/05 17:06:49;;;;;;;5.13;2.83;;;16.10;55.90;;;;;;6290093;28;20465;-73
2023/01/05 17:09:50;;;;;;;7.80;3.22;;;16.10;55.80;;;;;;6288194;28;20033;-73
2023/01/05 17:12:56;;;;;;;4.72;1.92;;;16.00;55.80;;;;;;6290771;28;20040;-73
2023/01/05 17:15:57;;;;;;;2.83;1.92;;;16.00;55.90;;;;;;6293252;28;20062;-74
2023/01/05 17:18:58;;;;;;;4.68;1.52;;;16.00;56.10;;;;;;6285667;28;20086;-75
2023/01/05 17:22:03;;;;;;;9.38;2.97;;;15.90;56.30;;;;;;6288808;28;20103;-73
2023/01/05 17:25:10;;;;;;;8.65;3.15;;;15.90;56.50;;;;;;6291782;28;20055;-73
2023/01/05 17:28:11;;;;;;;9.40;3.70;;;15.90;56.50;;;;;;6298553;28;20044;-73
2023/01/05 17:31:12;;;;;;;11.00;4.32;;;15.90;56.30;;;;;;6290740;28;20101;-73
2023/01/05 17:34:13;;;;;;;9.15;4.07;;;15.90;56.20;;;;;;6292136;28;20052;-74
2023/01/05 17:37:15;;;;;;;8.13;3.95;;;15.90;56.20;;;;;;6290666;28;20132;-74
2023/01/05 17:40:19;;;;;;;8.95;4.20;;;15.80;56.00;;;;;;6288059;28;20059;-73
2023/01/05 17:43:20;;;;;;;19.10;3.88;;;15.80;55.90;;;;;;6278450;28;20064;-73
2023/01/05 17:46:28;;;;;;;8.48;4.13;;;15.80;55.80;;;;;;6286828;28;20148;-73
2023/01/05 17:49:31;;;;;;;23.77;7.60;;;15.90;55.80;;;;;;6285712;28;20532;-74
2023/01/05 17:52:32;;;;;;;12.40;5.38;;;15.90;55.70;;;;;;6270195;28;20068;-75
2023/01/05 17:55:33;;;;;;;12.20;4.18;;;16.00;55.60;;;;;;6288360;28;20029;-74
2023/01/05 17:58:34;;;;;;;9.98;4.38;;;16.00;55.60;;;;;;6288659;28;20072;-74
2023/01/05 18:01:35;;;;;;;13.52;5.18;;;16.10;55.60;;;;;;6285993;28;20055;-73
2023/01/05 18:04:36;;;;;;;23.63;6.93;;;16.00;55.50;;;;;;6291522;28;20055;-74
2023/01/05 18:07:38;;;;;;;32.08;11.35;;;16.10;55.40;;;;;;6267752;28;20599;-73
2023/01/05 18:10:40;;;;;;;18.55;8.00;;;16.10;55.40;;;;;;6274285;28;21922;-72
2023/01/05 18:13:40;;;;;;;13.50;6.40;;;16.10;55.40;;;;;;6290693;28;20048;-73
2023/01/05 18:16:45;;;;;;;24.42;5.90;;;16.10;55.40;;;;;;6290357;28;20149;-74
2023/01/05 18:19:46;;;;;;;10.48;4.78;;;16.20;55.40;;;;;;6288825;28;20040;-73
2023/01/05 18:22:47;;;;;;;10.73;4.43;;;16.20;56.00;;;;;;6291026;28;20373;-74
2023/01/05 18:25:48;;;;;;;8.00;4.60;;;16.20;55.40;;;;;;6288384;28;20160;-73
2023/01/05 18:28:49;;;;;;;14.55;4.45;;;16.20;55.40;;;;;;6273213;28;20041;-74
2023/01/05 18:31:51;;;;;;;10.48;5.18;;;16.10;55.40;;;;;;6286820;28;20419;-73
2023/01/05 18:34:52;;;;;;;15.23;6.03;;;16.10;55.40;;;;;;6285665;28;20122;-71
2023/01/05 18:37:53;;;;;;;13.68;5.85;;;16.10;55.50;;;;;;6264292;28;20033;-72
2023/01/05 18:40:55;;;;;;;10.88;4.72;;;16.10;55.50;;;;;;6289354;28;20048;-73
2023/01/05 18:43:56;;;;;;;12.48;5.32;;;16.20;55.60;;;;;;6279004;28;20535;-73
2023/01/05 18:46:57;;;;;;;10.45;5.47;;;16.10;55.60;;;;;;6288964;28;20094;-74
2023/01/05 18:49:58;;;;;;;22.98;9.07;;;16.10;55.60;;;;;;6288977;28;20083;-73
2023/01/05 18:52:59;;;;;;;25.67;10.63;;;16.10;55.70;;;;;;6290932;28;20055;-74
2023/01/05 18:56:08;;;;;;;21.70;8.07;;;16.00;55.80;;;;;;6272224;28;20477;-73
2023/01/05 18:59:10;;;;;;;;;;;16.00;56.00;;;;;;6287015;28;20052;-71
2023/01/05 19:02:15;;;;;;;13.52;6.30;;;16.00;56.10;;;;;;6291401;28;19912;-73
2023/01/05 19:05:16;;;;;;;16.52;7.25;;;16.00;56.10;;;;;;6291829;28;20048;-72
2023/01/05 19:08:17;;;;;;;14.07;5.40;;;15.90;56.20;;;;;;6296363;28;20056;-72
2023/01/05 19:11:26;;;;;;;13.35;5.93;;;15.90;56.40;;;;;;6295605;28;20037;-72
2023/01/05 19:14:27;;;;;;;15.73;6.53;;;15.80;56.50;;;;;;6276376;28;20040;-73
2023/01/05 19:17:28;;;;;;;13.88;6.22;;;15.80;56.80;;;;;;6293583;28;20190;-73
2023/01/05 19:20:30;;;;;;;18.35;7.18;;;15.80;57.00;;;;;;6292720;28;20041;-73
2023/01/05 19:23:31;;;;;;;19.13;8.50;;;15.80;56.90;;;;;;6293762;28;20373;-73
2023/01/05 19:26:33;;;;;;;17.17;6.90;;;15.70;57.00;;;;;;6293908;28;20059;-74
2023/01/05 19:29:34;;;;;;;33.30;10.45;;;15.70;57.10;;;;;;6295151;28;20037;-72
2023/01/05 19:32:35;;;;;;;15.82;6.43;;;15.70;57.10;;;;;;6293668;28;20377;-74
2023/01/05 19:35:36;;;;;;;18.70;7.47;;;15.70;57.20;;;;;;6294951;28;20044;-74
2023/01/05 19:38:38;;;;;;;15.18;5.38;;;15.70;57.20;;;;;;6292213;28;20047;-71
2023/01/05 19:41:40;;;;;;;10.75;5.90;;;15.70;57.30;;;;;;6292887;28;20046;-73
2023/01/05 19:44:41;;;;;;;28.30;9.57;;;15.70;57.30;;;;;;6292909;28;20040;-73
2023/01/05 19:47:42;;;;;;;16.60;6.72;;;15.70;57.30;;;;;;6275535;28;20036;-73
2023/01/05 19:50:43;;;;;;;14.85;6.78;;;15.70;57.40;;;;;;6289814;28;20044;-73
2023/01/05 19:53:50;;;;;;;16.02;6.05;;;15.70;57.50;;;;;;6293458;28;20036;-74
2023/01/05 19:56:53;;;;;;;16.00;6.10;;;15.70;57.50;;;;;;6276760;28;20036;-74
2023/01/05 19:59:54;;;;;;;12.60;5.75;;;15.70;57.40;;;;;;6302419;28;20056;-75
2023/01/05 20:02:55;;;;;;;15.02;5.20;;;15.80;57.50;;;;;;6308961;28;20090;-72
2023/01/05 20:06:07;;;;;;;14.55;4.95;;;15.80;57.50;;;;;;6303495;28;20047;-73
2023/01/05 20:09:12;;;;;;;13.05;5.50;;;15.80;57.50;;;;;;6300570;28;20039;-75
2023/01/05 20:12:13;;;;;;;21.45;7.13;;;15.80;57.50;;;;;;6315429;28;20468;-72
2023/01/05 20:15:14;;;;;;;23.70;8.48;;;15.80;57.50;;;;;;6284100;28;20123;-72
2023/01/05 20:18:14;;;;;;;16.65;7.18;;;15.80;57.50;;;;;;6300408;28;20042;-73
2023/01/05 20:21:15;;;;;;;17.92;6.28;;;15.80;57.50;;;;;;6301156;28;20036;-73
2023/01/05 20:24:20;;;;;;;16.33;6.45;;;15.80;57.40;;;;;;6317408;28;20066;-73
2023/01/05 20:27:21;;;;;;;8.40;4.68;;;15.90;57.40;;;;;;6317982;28;20036;-75
2023/01/05 20:30:22;;;;;;;17.63;5.22;;;15.90;57.40;;;;;;6300261;28;20058;-73
2023/01/05 20:33:23;;;;;;;12.68;5.60;;;15.80;57.40;;;;;;6296188;28;20131;-73
2023/01/05 20:36:25;;;;;;;11.77;5.20;;;15.90;57.40;;;;;;6300101;28;20036;-73
2023/01/05 20:39:26;;;;;;;18.35;6.47;;;15.90;57.40;;;;;;6297706;28;20039;-73
2023/01/05 20:42:28;;;;;;;17.13;5.90;;;15.90;57.40;;;;;;6297361;28;20472;-75
2023/01/05 20:45:28;;;;;;;12.05;5.55;;;15.80;57.50;;;;;;6281160;28;20110;-73
2023/01/05 20:48:30;;;;;;;12.40;5.25;;;15.80;57.50;;;;;;6280331;28;20044;-73
2023/01/05 20:51:31;;;;;;;11.35;5.55;;;15.80;57.70;;;;;;6313332;28;20122;-74
2023/01/05 20:54:33;;;;;;;15.30;6.10;;;15.80;57.90;;;;;;6301775;28;20058;-73
2023/01/05 20:57:34;;;;;;;14.02;5.95;;;15.70;58.00;;;;;;6301953;28;20375;-73
2023/01/05 21:00:35;;;;;;;20.83;7.88;;;15.70;58.20;;;;;;6284953;28;20036;-74
2023/01/05 21:03:36;;;;;;;16.08;6.18;;;15.60;58.30;;;;;;6301368;28;20040;-73
2023/01/05 21:06:37;;;;;;;19.88;6.30;;;15.60;58.50;;;;;;6315674;28;20044;-73
2023/01/05 21:09:40;;;;;;;20.95;8.00;;;15.60;58.60;;;;;;6271641;28;20058;-73
2023/01/05 21:12:41;;;;;;;10.65;5.28;;;15.60;58.70;;;;;;6318454;28;20059;-73
2023/01/05 21:15:41;;;;;;;16.23;6.32;;;15.60;58.80;;;;;;6299001;28;20353;-74
2023/01/05 21:18:43;;;;;;;19.85;7.88;;;15.50;58.80;;;;;;6301017;28;20042;-74
2023/01/05 21:21:45;;;;;;;19.33;7.43;;;15.50;58.90;;;;;;6299754;28;20064;-73
2023/01/05 21:24:46;;;;;;;13.07;6.30;;;15.50;59.10;;;;;;6283965;28;20036;-73
2023/01/05 21:27:47;;;;;;;21.90;7.38;;;15.50;59.10;;;;;;6317712;28;20506;-73
2023/01/05 21:30:48;;;;;;;19.55;8.18;;;15.40;59.20;;;;;;6299411;28;20036;-73
2023/01/05 21:33:49;;;;;;;20.58;6.65;;;15.40;59.20;;;;;;6298096;28;20371;-73
2023/01/05 21:36:50;;;;;;;19.60;7.00;;;15.40;59.20;;;;;;6297846;28;20040;-74
2023/01/05 21:39:51;;;;;;;12.88;6.10;;;15.40;59.20;;;;;;6298815;28;20051;-73
2023/01/05 21:42:54;;;;;;;14.43;6.30;;;15.40;59.30;;;;;;6282371;28;20044;-74
2023/01/05 21:45:54;;;;;;;17.20;6.10;;;15.40;59.30;;;;;;6298387;28;20040;-74
2023/01/05 21:48:55;;;;;;;21.17;8.52;;;15.40;59.30;;;;;;6315011;28;20074;-73
2023/01/05 21:58:35;;;;;;;14.20;6.25;;;15.20;59.50;;;;;;6316544;28;20369;-74
2023/01/05 22:01:39;;;;;;;10.68;5.50;;;15.20;59.70;;;;;;6267873;28;20044;-73
2023/01/05 22:04:40;;;;;;;13.38;6.78;;;15.20;59.70;;;;;;6275419;28;20040;-72
2023/01/05 22:07:41;;;;;;;15.95;6.18;;;15.20;59.90;;;;;;6281454;28;20033;-71
2023/01/05 22:10:42;;;;;;;20.65;7.63;;;15.20;59.80;;;;;;6314538;28;20051;-75
2023/01/05 22:13:42;;;;;;;13.38;5.88;;;15.20;59.80;;;;;;6317037;28;20131;-72
2023/01/05 22:16:43;;;;;;;14.93;6.38;;;15.20;59.80;;;;;;6298625;28;20040;-74
2023/01/05 22:19:44;;;;;;;13.23;5.40;;;15.10;59.80;;;;;;6299100;28;20044;-74
2023/01/05 22:22:45;;;;;;;14.57;6.40;;;15.10;59.90;;;;;;6281938;28;20380;-73
2023/01/05 22:25:46;;;;;;;15.60;5.75;;;15.10;59.90;;;;;;6282023;28;20048;-73
2023/01/05 22:28:48;;;;;;;13.43;6.03;;;15.10;59.90;;;;;;6296081;28;20054;-73
2023/01/05 22:31:50;;;;;;;12.60;6.10;;;15.10;60.00;;;;;;6294973;28;20051;-73
2023/01/05 22:34:50;;;;;;;18.80;6.75;;;15.10;60.00;;;;;;6282708;28;20049;-74
2023/01/05 22:37:52;;;;;;;13.60;6.70;;;15.10;60.10;;;;;;6297915;28;20044;-73
2023/01/05 22:40:58;;;;;;;11.68;6.22;;;15.10;60.20;;;;;;6296227;28;20044;-73
2023/01/05 22:44:01;;;;;;;13.90;6.97;;;15.10;60.40;;;;;;6301121;28;20420;-74
2023/01/05 22:47:02;;;;;;;12.18;6.78;;;15.00;60.40;;;;;;6301855;28;20036;-73
2023/01/05 22:50:05;;;;;;;13.07;6.60;;;15.00;60.40;;;;;;6303092;28;20066;-72
2023/01/05 22:53:06;;;;;;;16.83;5.97;;;15.10;60.60;;;;;;6320183;28;20036;-74
2023/01/05 22:56:44;;;;;;;15.00;6.72;;;15.10;60.70;;;;;;6286105;28;20127;-72
2023/01/05 22:59:45;;;;;;;17.35;7.00;;;15.10;60.80;;;;;;6294892;28;20048;-73
2023/01/05 23:02:45;;;;;;;15.98;7.28;;;15.00;60.90;;;;;;6291453;28;20044;-73
2023/01/05 23:05:46;;;;;;;19.10;7.97;;;15.00;61.00;;;;;;6311045;28;21354;-73
2023/01/05 23:08:48;;;;;;;15.15;7.50;;;15.00;61.10;;;;;;6283888;28;20427;-71
2023/01/05 23:11:49;;;;;;;15.90;7.38;;;15.00;61.00;;;;;;6280459;28;20036;-72
2023/01/05 23:14:50;;;;;;;17.67;7.45;;;15.10;61.10;;;;;;6299094;28;20067;-72
2023/01/05 23:17:51;;;;;;;15.43;7.57;;;15.10;61.10;;;;;;6296645;28;20174;-72
2023/01/05 23:20:54;;;;;;;11.77;6.75;;;15.10;61.20;;;;;;6283808;28;20048;-73
2023/01/05 23:23:56;;;;;;;14.00;6.90;;;15.00;61.20;;;;;;6295256;28;20649;-72
2023/01/05 23:26:57;;;;;;;18.98;8.15;;;15.00;61.40;;;;;;6298075;28;20060;-73
2023/01/05 23:29:58;;;;;;;20.40;7.10;;;14.90;61.70;;;;;;6275878;28;20079;-73
2023/01/05 23:32:59;;;;;;;18.15;7.68;;;14.90;62.10;;;;;;6305028;28;20369;-73
2023/01/05 23:36:00;;;;;;;15.38;7.07;;;14.80;62.30;;;;;;6295328;28;20109;-74
2023/01/05 23:39:01;;;;;;;16.48;7.20;;;14.70;62.50;;;;;;6297659;28;20123;-73
2023/01/05 23:42:02;;;;;;;16.77;7.95;;;14.70;62.80;;;;;;6301788;28;20051;-73
2023/01/05 23:45:03;;;;;;;18.80;7.78;;;14.70;63.10;;;;;;6300095;28;20131;-72
2023/01/05 23:48:04;;;;;;;16.58;7.78;;;14.60;63.20;;;;;;6309878;28;20044;-71
2023/01/05 23:51:11;;;;;;;15.80;7.93;;;14.60;63.40;;;;;;6312622;28;20110;-73
2023/01/05 23:54:13;;;;;;;17.95;8.27;;;14.60;63.60;;;;;;6313535;28;20095;-71
2023/01/05 23:57:13;;;;;;;17.23;7.43;;;14.50;63.70;;;;;;6304685;28;20045;-72
